Time;durP1;ratioP1;P1;durP2;ratioP2;P2;SDS_P1;SDS_P2;PMS_P1;PMS_P2;Temp;Humidity;BMP_temperature;BMP_pressure;BME280_temperature;BME280_humidity;BME280_pressure;Samples;Min_cycle;Max_cycle;Signal;HPM_P1;HPM_P2
2022/01/30 00:00:51;;;;;;;26.80;6.10;;;;;;;5.07;79.36;102708.63;4788960;30;20084;-80
2022/01/30 00:10:58;;;;;;;38.80;5.93;;;;;;;4.80;79.66;102694.38;4802217;24;20067;-79
2022/01/30 00:13:26;;;;;;;31.45;5.53;;;;;;;4.71;79.55;102680.81;4788605;30;20034;-79
2022/01/30 00:15:54;;;;;;;36.35;6.25;;;;;;;4.89;80.11;102711.38;4787508;30;20034;-79
2022/01/30 00:21:13;;;;;;;39.30;5.88;;;;;;;4.86;79.75;102713.97;4788678;29;20122;-79
2022/01/30 00:23:46;;;;;;;37.95;6.15;;;;;;;4.89;80.03;102711.38;4788491;30;20084;-79
2022/01/30 00:26:14;;;;;;;33.50;5.63;;;;;;;4.78;79.78;102706.34;4788411;30;20447;-79
2022/01/30 00:28:40;;;;;;;28.52;5.95;;;;;;;4.70;79.92;102699.59;4786922;29;20047;-79
2022/01/30 00:41:56;;;;;;;32.75;5.20;;;;;;;4.48;80.37;102689.53;4769068;30;20075;-81
2022/01/30 00:44:46;;;;;;;32.30;4.65;;;;;;;4.64;80.65;102725.25;4928724;24;20142;-80
2022/01/30 00:50:45;;;;;;;35.00;5.50;;;;;;;4.17;81.15;102675.28;4788124;30;20085;-80
2022/01/30 01:02:54;;;;;;;35.35;6.05;;;;;;;4.49;81.80;102741.56;4812457;29;20054;-79
2022/01/30 01:06:07;;;;;;;37.92;5.35;;;;;;;3.24;81.47;102542.97;4787995;30;20504;-79
2022/01/30 01:25:42;;;;;;;34.53;5.50;;;;;;;4.30;81.95;102754.47;4788206;30;20066;-79
2022/01/30 01:28:08;;;;;;;28.83;6.22;;;;;;;4.15;81.99;102728.16;4786535;30;20519;-80
2022/01/30 01:33:08;;;;;;;32.78;4.93;;;;;;;3.22;81.77;102588.94;4990818;24;20059;-82
2022/01/30 01:59:56;;;;;;;35.67;7.22;;;;;;;4.13;81.55;102784.41;4791566;30;20072;-80
2022/01/30 02:02:58;;;;;;;33.22;5.57;;;;;;;4.10;81.85;102771.63;4791098;30;20039;-81
2022/01/30 02:09:11;;;;;;;40.42;6.47;;;;;;;3.99;82.35;102761.44;4753117;30;20050;-80
2022/01/30 02:12:14;;;;;;;38.85;5.95;;;;;;;3.96;82.66;102770.84;4773743;30;20051;-82
2022/01/30 02:34:16;;;;;;;34.40;5.40;;;;;;;3.55;84.11;102764.19;4792184;29;20126;-79
2022/01/30 02:46:53;;;;;;;34.90;5.15;;;;;;;2.46;84.67;102561.06;4790482;30;20138;-82
2022/01/30 02:52:15;;;;;;;40.35;5.28;;;;;;;3.61;84.87;102740.31;4789419;29;20070;-81
2022/01/30 03:03:57;;;;;;;43.03;6.88;;;;;;;3.62;84.84;102749.66;4790133;30;20469;-82
2022/01/30 03:15:07;;;;;;;37.35;5.40;;;;;;;3.73;84.43;102787.09;5669624;24;20055;-79
2022/01/30 03:21:16;;;;;;;31.88;5.30;;;;;;;3.77;84.44;102793.06;4789824;30;20416;-82
2022/01/30 03:35:42;;;;;;;37.55;5.43;;;;;;;4.36;81.59;102814.97;5314577;24;20455;-81
2022/01/30 03:38:07;;;;;;;23.95;4.88;;;;;;;4.37;81.71;102818.38;4788211;30;20043;-80
2022/01/30 03:40:33;;;;;;;32.67;4.88;;;;;;;4.31;81.23;102809.00;4789558;29;20039;-82
2022/01/30 03:43:01;;;;;;;29.38;5.20;;;;;;;4.40;81.13;102832.00;4789471;30;20035;-78
2022/01/30 03:53:11;;;;;;;22.98;3.78;;;;;;;4.32;80.90;102849.91;5492746;24;20058;-82
2022/01/30 03:55:38;;;;;;;29.38;4.13;;;;;;;4.05;80.81;102804.03;4789307;30;20027;-81
2022/01/30 03:58:07;;;;;;;29.08;3.70;;;;;;;4.04;80.25;102810.00;4789272;30;20023;-80
2022/01/30 04:00:34;;;;;;;27.50;4.22;;;;;;;4.28;79.95;102847.41;4773624;30;20145;-80
2022/01/30 04:03:00;;;;;;;22.60;3.22;;;;;;;4.30;79.76;102861.03;4789149;29;20056;-82
2022/01/30 04:05:25;;;;;;;23.88;5.65;;;;;;;4.10;79.50;102840.66;4789071;30;20463;-80
2022/01/30 04:07:51;;;;;;;22.30;3.25;;;;;;;4.00;79.37;102833.88;4789266;30;20145;-82
2022/01/30 04:10:16;;;;;;;20.75;3.63;;;;;;;4.11;79.70;102873.03;4773121;30;20050;-82
2022/01/30 04:12:42;;;;;;;20.27;3.28;;;;;;;3.94;79.71;102837.31;4789022;30;20114;-82
2022/01/30 04:15:08;;;;;;;21.27;3.25;;;;;;;4.11;79.33;102860.25;4788862;30;20031;-82
2022/01/30 04:17:34;;;;;;;20.50;2.95;;;;;;;4.22;78.84;102876.41;4789070;30;20088;-82
2022/01/30 04:19:59;;;;;;;21.48;3.63;;;;;;;4.01;78.99;102843.25;4789052;30;20431;-81
2022/01/30 04:22:25;;;;;;;25.55;3.17;;;;;;;4.13;78.79;102871.34;4788885;30;20049;-80
2022/01/30 04:24:50;;;;;;;24.77;3.05;;;;;;;3.96;79.01;102850.94;4789112;30;20047;-80
2022/01/30 04:27:16;;;;;;;21.17;4.00;;;;;;;4.06;78.74;102869.66;4788440;30;20058;-82
2022/01/30 04:29:44;;;;;;;20.23;3.47;;;;;;;4.07;78.99;102875.63;4787815;30;20027;-80
2022/01/30 04:32:12;;;;;;;22.27;3.08;;;;;;;4.05;79.11;102867.94;4788741;30;20035;-82
2022/01/30 04:34:38;;;;;;;24.83;3.58;;;;;;;4.10;78.97;102875.59;4788748;30;20027;-80
2022/01/30 04:37:04;;;;;;;21.13;3.30;;;;;;;4.05;79.12;102867.94;4788820;30;20042;-81
2022/01/30 04:51:56;;;;;;;24.65;3.78;;;;;;;4.04;79.03;102876.47;4788726;30;20042;-83
2022/01/30 05:32:26;;;;;;;20.52;2.58;;;;;;;3.28;81.40;102914.88;4788218;30;20449;-82
2022/01/30 05:42:08;;;;;;;;;;;;;;;;;;;;;
2022/01/30 05:57:26;;;;;;;23.02;3.28;;;;;;;3.06;80.96;102931.88;4787941;30;20420;-80
2022/01/30 06:07:11;;;;;;;21.48;3.13;;;;;;;2.98;80.81;102946.31;4788068;30;20053;-79
2022/01/30 06:09:36;;;;;;;19.42;2.92;;;;;;;2.55;80.35;102880.69;4803272;29;20047;-80
2022/01/30 06:15:27;;;;;;;26.73;3.90;;;;;;;3.04;81.03;102962.47;4803827;29;20054;-80
2022/01/30 06:17:53;;;;;;;28.70;4.03;;;;;;;2.85;80.49;102912.25;4805645;29;20051;-80
2022/01/30 06:20:18;;;;;;;23.50;3.42;;;;;;;2.98;81.01;102926.75;4789559;29;20035;-80
2022/01/30 06:40:19;;;;;;;29.05;3.58;;;;;;;3.41;80.01;102945.53;4772553;30;20519;-78
2022/01/30 06:43:49;;;;;;;22.05;3.20;;;;;;;3.40;80.09;102950.63;4752800;30;20230;-80
2022/01/30 06:46:54;;;;;;;29.45;4.55;;;;;;;3.34;80.27;102956.59;4752679;30;20131;-81
2022/01/30 06:49:50;;;;;;;33.10;4.05;;;;;;;3.26;80.18;102960.84;4752623;30;20062;-80
2022/01/30 06:52:34;;;;;;;24.35;3.40;;;;;;;2.79;80.65;102899.50;4752518;30;20055;-80
2022/01/30 07:01:53;;;;;;;27.42;4.43;;;;;;;3.06;80.92;102977.81;4754684;30;20055;-80
2022/01/30 07:04:58;;;;;;;30.55;4.32;;;;;;;3.02;81.08;102988.84;4754155;30;20085;-81
2022/01/30 07:14:45;;;;;;;28.48;3.65;;;;;;;2.88;82.25;103004.13;4734504;30;20041;-81
2022/01/30 07:20:57;;;;;;;28.48;4.00;;;;;;;2.83;82.42;102995.59;4734825;30;20043;-81
2022/01/30 07:23:22;;;;;;;26.25;3.88;;;;;;;2.59;82.82;102958.94;4734789;30;20110;-82
2022/01/30 07:29:14;;;;;;;28.10;4.00;;;;;;;2.32;82.85;102929.91;4736924;29;20040;-81
2022/01/30 07:41:47;;;;;;;24.13;4.50;;;;;;;2.02;81.96;102875.38;4736014;29;20286;-81
2022/01/30 07:44:24;;;;;;;26.67;3.80;;;;;;;2.46;81.69;102958.84;4734370;30;20133;-81
2022/01/30 08:11:10;;;;;;;34.25;5.88;;;;;;;3.24;80.30;103041.66;4787294;30;20113;-81
2022/01/30 08:13:39;;;;;;;32.40;4.90;;;;;;;2.09;79.85;102858.44;4762129;30;20056;-74
2022/01/30 08:16:11;;;;;;;33.00;5.07;;;;;;;2.50;80.09;102913.00;4770921;30;20066;-74
2022/01/30 08:18:38;;;;;;;33.30;5.57;;;;;;;3.20;79.79;103023.81;5158790;24;20345;-77
2022/01/30 08:21:04;;;;;;;29.50;5.43;;;;;;;3.45;79.48;103040.91;4752535;30;20060;-77
2022/01/30 08:23:32;;;;;;;38.00;4.60;;;;;;;3.49;79.11;103011.94;4753037;30;20044;-75
2022/01/30 08:25:57;;;;;;;39.30;5.93;;;;;;;3.84;78.82;103058.00;4753116;30;20047;-76
2022/01/30 08:28:22;;;;;;;37.58;7.03;;;;;;;4.00;78.33;103059.69;4753216;30;20032;-75
2022/01/30 08:30:48;;;;;;;35.05;6.63;;;;;;;3.96;77.95;103021.34;4752928;30;20123;-77
2022/01/30 08:33:16;;;;;;;39.45;5.15;;;;;;;3.95;77.48;103007.72;4752952;30;20175;-77
2022/01/30 08:41:37;;;;;;;37.67;5.93;;;;;;;3.94;76.57;102982.16;4788621;30;20046;-77
2022/01/30 08:44:15;;;;;;;25.70;4.40;;;;;;;3.74;76.20;102936.19;4788471;30;20038;-78
2022/01/30 08:47:02;;;;;;;33.97;6.00;;;;;;;4.01;75.87;102983.84;4788086;29;20035;-78
2022/01/30 08:53:46;;;;;;;35.30;4.90;;;;;;;4.55;76.13;103067.31;4788861;30;20089;-78
2022/01/30 08:56:12;;;;;;;38.33;5.90;;;;;;;3.45;75.19;102880.00;4788486;30;20050;-80
2022/01/30 08:58:53;;;;;;;30.52;5.32;;;;;;;3.71;75.42;102934.44;4788131;30;20389;-78
2022/01/30 09:04:46;;;;;;;29.63;5.63;;;;;;;3.79;75.70;102983.00;4824381;24;20113;-78
2022/01/30 09:07:58;;;;;;;39.85;6.68;;;;;;;4.27;76.25;103079.28;4768960;30;20448;-78
2022/01/30 09:10:42;;;;;;;;;;;;;;;4.27;76.74;103089.50;4770494;30;20040;-79
2022/01/30 09:13:27;;;;;;;34.13;6.10;;;;;;;4.27;76.11;103084.41;4770233;30;19934;-79
2022/01/30 09:15:59;;;;;;;41.83;6.30;;;;;;;3.57;76.00;102961.72;4769951;30;20045;-79
2022/01/30 09:29:47;;;;;;;30.20;5.07;;;;;;;4.71;73.31;103011.81;5320464;24;20089;-79
2022/01/30 09:36:13;;;;;;;32.90;5.82;;;;;;;5.53;72.94;103104.50;4787864;30;20077;-81
2022/01/30 09:42:00;;;;;;;40.80;6.07;;;;;;;5.50;70.77;103078.88;4779387;24;20067;-80
2022/01/30 09:46:51;;;;;;;29.48;5.13;;;;;;;5.71;69.92;103081.34;4924526;24;20055;-79
2022/01/30 09:49:22;;;;;;;36.80;4.70;;;;;;;5.58;70.60;103080.53;4787354;30;20307;-79
2022/01/30 09:51:48;;;;;;;36.42;5.35;;;;;;;5.44;70.46;103093.44;4787684;30;20031;-77
2022/01/30 09:54:29;;;;;;;38.83;6.15;;;;;;;5.24;71.58;103091.84;4787749;30;20439;-78
2022/01/30 10:05:33;;;;;;;41.45;5.90;;;;;;;5.18;72.43;103131.97;4735819;30;20590;-80
2022/01/30 10:12:34;;;;;;;;;;;;;;;;;;;;;
2022/01/30 10:15:18;;;;;;;43.33;7.03;;;;;;;5.24;72.78;103146.50;4750062;30;20043;-81
2022/01/30 10:18:32;;;;;;;40.83;5.30;;;;;;;4.11;72.75;102964.22;4753059;30;20028;-78
2022/01/30 10:21:02;;;;;;;46.05;6.63;;;;;;;4.19;71.94;102960.81;4752295;30;20040;-79
2022/01/30 10:23:53;;;;;;;38.90;7.70;;;;;;;4.43;72.09;103003.38;4752944;30;20122;-78
2022/01/30 10:27:02;;;;;;;42.67;6.03;;;;;;;5.31;72.70;103140.50;4752795;30;20097;-78
2022/01/30 10:29:34;;;;;;;37.30;5.90;;;;;;;4.42;72.64;102998.25;4737793;29;20050;-75
2022/01/30 10:32:15;;;;;;;;;;;;;;;5.34;73.35;103149.88;4753341;30;20509;-77
2022/01/30 10:34:41;;;;;;;40.92;4.88;;;;;;;5.40;72.92;103150.66;4738378;30;20441;-78
2022/01/30 10:37:22;;;;;;;45.72;7.40;;;;;;;5.39;72.99;103138.72;4790248;24;20055;-77
2022/01/30 10:39:59;;;;;;;53.95;7.55;;;;;;;5.35;73.06;103125.94;4774052;30;20031;-79
2022/01/30 10:42:33;;;;;;;42.53;5.93;;;;;;;5.50;72.64;103137.81;4790335;30;20038;-78
2022/01/30 10:44:59;;;;;;;41.13;6.45;;;;;;;5.49;72.86;103134.41;4790526;30;20035;-78
2022/01/30 10:47:24;;;;;;;50.22;7.22;;;;;;;5.37;70.78;103117.38;4790239;29;20031;-78
2022/01/30 10:49:50;;;;;;;50.15;6.38;;;;;;;5.57;71.73;103137.78;4789985;30;20111;-77
2022/01/30 10:52:15;;;;;;;47.88;6.25;;;;;;;5.50;71.86;103122.44;4789981;30;20142;-81
2022/01/30 10:54:41;;;;;;;63.50;8.45;;;;;;;5.66;72.33;103142.88;4790144;30;20081;-78
2022/01/30 10:57:08;;;;;;;46.55;6.55;;;;;;;5.64;71.60;103116.41;4807786;29;20051;-78
2022/01/30 11:02:25;;;;;;;47.83;7.43;;;;;;;5.87;71.12;103100.84;4803551;24;20055;-74
2022/01/30 11:05:00;;;;;;;;;;;;;;;6.18;71.68;103134.00;4790156;29;20028;-77
2022/01/30 11:07:27;;;;;;;47.22;7.30;;;;;;;6.35;68.82;103115.91;4788257;29;19933;-75
2022/01/30 11:10:03;;;;;;;50.00;6.18;;;;;;;6.51;68.27;103120.06;4886239;24;20022;-79
2022/01/30 11:12:42;;;;;;;50.95;6.32;;;;;;;6.12;68.45;103032.31;4761609;30;20055;-79
2022/01/30 11:15:44;;;;;;;55.65;8.65;;;;;;;6.34;67.27;103079.16;4771868;30;20438;-75
2022/01/30 11:18:05;;;;;;;47.53;6.57;;;;;;;6.25;68.24;103053.56;4768971;30;20039;-75
2022/01/30 11:20:32;;;;;;;42.55;7.38;;;;;;;6.53;67.07;103108.06;4771529;30;20038;-76
2022/01/30 11:23:03;;;;;;;45.65;6.50;;;;;;;6.38;65.65;103093.63;4770928;30;20036;-79
2022/01/30 11:25:33;;;;;;;47.92;10.05;;;;;;;6.39;66.19;103087.66;4783764;24;20044;-79
2022/01/30 11:28:03;;;;;;;44.05;7.40;;;;;;;6.52;65.75;103101.22;4771642;30;20039;-79
2022/01/30 11:30:28;;;;;;;41.83;7.13;;;;;;;6.51;65.79;103094.38;4771708;30;20460;-79
2022/01/30 11:32:54;;;;;;;56.00;7.65;;;;;;;6.50;65.31;103096.09;4771819;30;20039;-77
2022/01/30 11:35:31;;;;;;;53.55;7.22;;;;;;;5.54;66.79;102919.13;4779530;24;20056;-78
2022/01/30 11:37:57;;;;;;;48.38;7.15;;;;;;;5.82;65.58;102905.19;4770393;30;20030;-80
2022/01/30 11:40:26;;;;;;;41.70;5.50;;;;;;;7.18;63.57;103094.50;4771350;30;20119;-80
2022/01/30 11:43:04;;;;;;;;;;;;;;;;;;;;;
2022/01/30 11:48:25;;;;;;;47.50;7.60;;;;;;;6.89;62.46;103010.09;4801418;24;20094;-79
2022/01/30 11:51:09;;;;;;;41.13;5.75;;;;;;;7.33;62.08;103087.44;4788914;29;20055;-77
2022/01/30 11:53:59;;;;;;;48.10;6.50;;;;;;;7.28;63.56;103086.66;4789201;30;20083;-79
2022/01/30 12:03:30;;;;;;;40.78;6.70;;;;;;;7.52;64.15;103081.19;4789145;30;20087;-79
2022/01/30 12:06:16;;;;;;;40.58;6.05;;;;;;;7.30;63.39;103031.81;4788929;30;20057;-79
2022/01/30 12:08:47;;;;;;;45.92;7.10;;;;;;;7.71;62.39;103085.19;4788858;30;20061;-78
2022/01/30 12:11:34;;;;;;;36.78;6.13;;;;;;;7.74;62.92;103077.41;4788944;30;20071;-79
2022/01/30 12:14:10;;;;;;;56.72;7.50;;;;;;;7.81;62.69;103082.47;4787436;30;20043;-77
2022/01/30 12:16:44;;;;;;;54.42;7.05;;;;;;;7.76;63.71;103069.66;4788926;30;20027;-79
2022/01/30 12:19:11;;;;;;;47.55;7.68;;;;;;;7.90;62.70;103084.91;4788805;30;20063;-78
2022/01/30 12:21:37;;;;;;;45.55;6.32;;;;;;;7.83;62.27;103081.56;4788165;29;20492;-78
2022/01/30 12:24:23;;;;;;;57.28;7.22;;;;;;;7.51;61.69;103058.91;4788501;29;20081;-79
2022/01/30 12:27:00;;;;;;;48.53;7.80;;;;;;;7.28;61.15;103074.66;4788676;29;20035;-79
2022/01/30 12:29:42;;;;;;;41.55;6.50;;;;;;;7.05;62.19;103081.81;4788460;30;20439;-80
2022/01/30 12:32:22;;;;;;;44.47;8.10;;;;;;;6.89;62.46;103081.16;4788442;30;20036;-75
2022/01/30 12:34:57;;;;;;;43.35;5.57;;;;;;;6.79;63.87;103066.72;4788528;30;20106;-77
2022/01/30 12:37:31;;;;;;;47.50;7.57;;;;;;;6.62;64.62;103051.50;4788274;30;20161;-76
2022/01/30 12:39:59;;;;;;;54.55;7.00;;;;;;;6.65;64.09;103063.44;4788524;30;20027;-79
2022/01/30 12:42:27;;;;;;;53.60;6.38;;;;;;;6.63;64.37;103054.91;4788376;30;20096;-78
2022/01/30 12:44:58;;;;;;;51.40;9.57;;;;;;;6.55;64.11;103039.56;4788297;30;20027;-79
2022/01/30 12:47:24;;;;;;;45.33;6.00;;;;;;;6.53;63.10;103047.31;4784324;30;20101;-78
2022/01/30 12:49:52;;;;;;;48.35;7.55;;;;;;;6.45;63.40;103026.00;4770537;30;20056;-79
2022/01/30 12:54:55;;;;;;;56.53;9.27;;;;;;;6.59;63.79;103029.28;4770595;30;20058;-77
2022/01/30 12:57:22;;;;;;;49.55;8.32;;;;;;;6.52;64.09;103008.81;4770680;30;20028;-78
2022/01/30 12:59:53;;;;;;;59.20;7.63;;;;;;;6.68;63.83;103015.47;4770523;30;20043;-76
2022/01/30 13:02:19;;;;;;;56.20;7.32;;;;;;;6.73;63.39;102994.88;4770409;30;20119;-77
2022/01/30 13:04:44;;;;;;;54.15;8.60;;;;;;;7.08;62.72;103007.25;4770361;30;20080;-76
2022/01/30 13:07:13;;;;;;;54.88;6.80;;;;;;;7.31;62.48;103009.53;4770337;30;20028;-77
2022/01/30 13:09:39;;;;;;;57.67;8.15;;;;;;;7.59;61.98;103012.53;4770380;30;20035;-77
2022/01/30 13:12:16;;;;;;;55.50;7.57;;;;;;;7.71;61.18;102984.03;4770186;30;20035;-77
2022/01/30 13:14:42;;;;;;;62.75;8.82;;;;;;;7.86;60.38;102991.47;4770289;30;20166;-76
2022/01/30 13:17:10;;;;;;;60.50;9.13;;;;;;;7.77;60.60;102963.38;4770327;30;20123;-79
2022/01/30 13:19:42;;;;;;;58.15;7.47;;;;;;;7.63;58.69;102948.16;4770306;30;20425;-79
2022/01/30 13:22:10;;;;;;;54.78;7.75;;;;;;;7.66;58.89;102973.81;4769962;30;20039;-77
2022/01/30 13:24:37;;;;;;;55.60;7.25;;;;;;;7.41;58.04;102969.97;4770089;30;20380;-77
2022/01/30 13:27:04;;;;;;;48.20;7.03;;;;;;;7.32;58.39;102967.53;4769873;30;20097;-77
2022/01/30 13:29:34;;;;;;;53.70;8.25;;;;;;;7.09;58.85;102934.47;4767828;30;20511;-77
2022/01/30 13:32:00;;;;;;;57.70;7.47;;;;;;;7.14;57.24;102958.34;4769958;30;20036;-77
2022/01/30 13:34:30;;;;;;;46.85;6.90;;;;;;;6.83;57.49;102930.53;4771149;30;20157;-78
2022/01/30 13:37:08;;;;;;;53.60;7.75;;;;;;;6.82;59.29;102946.81;4775762;30;20465;-77
2022/01/30 13:39:43;;;;;;;46.35;6.70;;;;;;;6.51;59.07;102925.84;4775555;30;20024;-78
2022/01/30 13:47:33;;;;;;;53.28;7.72;;;;;;;6.20;60.61;102943.31;4921798;24;20055;-78
2022/01/30 13:50:13;;;;;;;49.42;6.65;;;;;;;6.16;61.59;102944.19;4793418;30;20180;-80
2022/01/30 13:52:39;;;;;;;47.15;7.85;;;;;;;6.00;62.19;102920.44;4793208;30;20083;-79
2022/01/30 13:55:07;;;;;;;53.20;8.57;;;;;;;5.93;62.41;102920.50;4793679;30;20106;-79
2022/01/30 13:57:34;;;;;;;62.58;7.45;;;;;;;5.88;62.53;102910.25;4793538;30;20031;-80
2022/01/30 14:00:06;;;;;;;45.88;6.45;;;;;;;5.97;62.44;102937.53;4777373;30;20179;-80
2022/01/30 14:02:31;;;;;;;;;;;;;;;5.95;62.98;102944.41;4793783;30;20051;-80
2022/01/30 14:05:24;;;;;;;40.97;7.20;;;;;;;5.97;63.64;102937.53;4793410;30;19956;-79
2022/01/30 14:07:51;;;;;;;48.65;7.93;;;;;;;5.83;62.53;102901.78;4793121;29;20035;-79
2022/01/30 14:10:18;;;;;;;40.97;7.18;;;;;;;6.02;62.92;102931.53;4793418;30;20440;-77
2022/01/30 14:26:38;;;;;;;53.53;7.30;;;;;;;6.30;61.73;102923.53;4793561;30;20630;-79
2022/01/30 14:29:06;;;;;;;46.17;6.80;;;;;;;6.25;62.39;102926.13;4790210;30;20461;-78
2022/01/30 14:31:32;;;;;;;41.60;6.53;;;;;;;6.08;62.51;102898.97;4791975;30;20452;-79
2022/01/30 14:33:57;;;;;;;38.83;5.80;;;;;;;6.12;62.50;102918.59;4793127;30;20041;-81
2022/01/30 14:36:25;;;;;;;41.47;6.07;;;;;;;6.00;63.22;102912.75;4793157;30;20477;-78
2022/01/30 14:38:53;;;;;;;42.28;7.88;;;;;;;5.92;63.97;102911.13;4791998;29;20040;-76
2022/01/30 14:41:19;;;;;;;40.90;6.55;;;;;;;5.74;63.06;102892.44;4800917;29;20038;-78
2022/01/30 14:43:44;;;;;;;48.35;7.97;;;;;;;5.75;63.65;102886.44;4806448;29;20467;-79
2022/01/30 14:46:09;;;;;;;40.63;5.70;;;;;;;5.82;63.75;102896.66;4795051;29;20092;-79
2022/01/30 14:59:49;;;;;;;40.10;5.72;;;;;;;4.57;61.73;102719.31;4807319;29;20081;-79
2022/01/30 15:02:32;;;;;;;37.03;5.53;;;;;;;4.37;61.63;102687.94;4808518;29;20615;-78
2022/01/30 15:08:26;;;;;;;38.95;6.95;;;;;;;5.09;62.54;102811.03;4808113;29;20081;-78
2022/01/30 15:10:51;;;;;;;31.83;4.40;;;;;;;5.13;62.40;102823.81;4808428;29;20035;-79
2022/01/30 15:13:37;;;;;;;36.65;6.30;;;;;;;4.22;63.01;102676.09;4807958;29;20026;-79
2022/01/30 15:16:14;;;;;;;48.03;6.57;;;;;;;4.66;63.23;102749.97;4761013;29;20050;-80
2022/01/30 15:18:54;;;;;;;33.08;5.50;;;;;;;4.17;63.54;102663.34;4807926;29;20131;-78
2022/01/30 15:30:12;;;;;;;36.83;7.07;;;;;;;5.21;64.83;102844.25;4801398;24;20140;-81
2022/01/30 15:32:40;;;;;;;43.05;6.60;;;;;;;4.92;65.02;102800.97;4789638;30;20383;-80
2022/01/30 15:35:33;;;;;;;37.33;6.82;;;;;;;5.17;65.12;102840.84;4789435;30;20031;-82
2022/01/30 15:37:59;;;;;;;37.05;6.78;;;;;;;5.19;64.62;102836.56;4789655;30;20031;-80
2022/01/30 15:40:25;;;;;;;27.98;5.53;;;;;;;5.31;64.74;102840.75;4789203;29;20468;-81
2022/01/30 15:50:38;;;;;;;37.35;6.95;;;;;;;4.92;64.50;102769.38;4789807;30;20454;-82
2022/01/30 15:53:04;;;;;;;34.63;6.65;;;;;;;5.10;65.27;102803.34;4789750;30;20392;-84
2022/01/30 15:55:32;;;;;;;33.00;6.07;;;;;;;5.00;65.26;102800.88;4789303;30;20034;-81
2022/01/30 15:57:57;;;;;;;36.03;5.75;;;;;;;4.92;65.65;102798.41;4788865;29;20485;-81
2022/01/30 16:00:23;;;;;;;26.00;5.57;;;;;;;4.79;65.56;102782.28;4789724;30;20073;-84
2022/01/30 16:02:49;;;;;;;32.45;5.68;;;;;;;4.72;66.17;102770.41;4789313;30;20147;-84
2022/01/30 16:05:17;;;;;;;35.20;5.70;;;;;;;4.74;66.18;102773.78;4789066;30;20417;-81
2022/01/30 16:07:43;;;;;;;33.17;6.53;;;;;;;4.66;66.25;102765.31;4789399;30;20378;-80
2022/01/30 16:10:14;;;;;;;33.83;7.18;;;;;;;4.40;67.24;102731.38;4788893;29;20042;-80
2022/01/30 16:15:36;;;;;;;32.70;7.05;;;;;;;4.05;67.57;102685.59;4788983;30;20026;-79
2022/01/30 16:15:39;;;;;;;31.98;6.78;;;;;;;4.43;68.18;102754.41;4788829;29;20037;-80
2022/01/30 16:18:11;;;;;;;35.75;6.78;;;;;;;4.37;68.63;102746.75;4788914;30;20106;-79
2022/01/30 16:20:46;;;;;;;40.90;7.10;;;;;;;4.27;68.92;102741.69;4789024;30;20034;-81
2022/01/30 16:23:13;;;;;;;32.42;7.40;;;;;;;4.26;68.80;102734.03;4788963;30;20068;-79
2022/01/30 16:25:40;;;;;;;38.80;9.68;;;;;;;3.89;69.07;102682.28;4788646;30;20110;-79
2022/01/30 16:28:08;;;;;;;48.95;7.63;;;;;;;4.06;69.68;102710.31;4788789;30;20027;-79
2022/01/30 16:30:34;;;;;;;27.33;7.35;;;;;;;3.29;70.08;102582.09;4866397;24;20044;-80
2022/01/30 16:38:24;;;;;;;31.35;7.22;;;;;;;3.22;71.38;102606.81;5019402;24;20067;-81
2022/01/30 16:40:50;;;;;;;32.10;6.35;;;;;;;3.30;71.69;102633.16;4788385;29;20035;-80
2022/01/30 16:44:14;;;;;;;31.67;7.93;;;;;;;2.53;71.76;102524.53;4788885;30;20119;-77
2022/01/30 16:49:16;;;;;;;32.08;7.35;;;;;;;3.41;73.49;102694.41;4788469;30;20040;-80
2022/01/30 16:51:42;;;;;;;33.10;7.85;;;;;;;3.32;73.85;102697.81;4788669;30;20044;-80
2022/01/30 16:54:08;;;;;;;41.38;8.63;;;;;;;3.14;74.63;102690.22;4788527;30;20392;-82
2022/01/30 16:56:34;;;;;;;31.52;8.63;;;;;;;3.09;74.90;102700.44;4788330;30;20039;-83
2022/01/30 16:59:03;;;;;;;27.48;8.02;;;;;;;2.71;75.69;102661.38;4788199;30;20481;-82
2022/01/30 17:01:28;;;;;;;28.33;8.25;;;;;;;2.67;75.64;102667.34;5113882;24;20018;-79
2022/01/30 17:03:54;;;;;;;33.30;8.85;;;;;;;2.81;76.08;102696.22;4788345;30;20050;-82
2022/01/30 17:06:22;;;;;;;31.25;11.07;;;;;;;2.75;76.14;102693.66;4788352;30;20027;-80
2022/01/30 17:08:50;;;;;;;33.55;10.63;;;;;;;2.43;76.41;102646.06;4787961;29;20028;-78
2022/01/30 17:14:11;;;;;;;34.10;11.88;;;;;;;1.63;76.53;102514.41;4938458;24;20409;-78
2022/01/30 17:16:36;;;;;;;32.03;10.60;;;;;;;2.58;77.53;102683.50;4769306;30;20051;-81
2022/01/30 17:19:01;;;;;;;35.08;10.57;;;;;;;2.56;76.79;102683.50;4770215;30;20032;-80
2022/01/30 17:21:27;;;;;;;39.80;12.02;;;;;;;2.54;77.23;102686.88;4770363;30;20035;-78
2022/01/30 17:26:22;;;;;;;42.13;13.85;;;;;;;2.40;77.04;102666.47;4770142;30;20055;-78
2022/01/30 17:28:48;;;;;;;44.42;13.38;;;;;;;2.33;77.57;102653.72;4770190;30;20093;-76
2022/01/30 17:31:13;;;;;;;38.53;13.18;;;;;;;2.47;78.40;102675.84;4769910;30;20158;-78
2022/01/30 17:33:39;;;;;;;44.72;13.35;;;;;;;2.24;77.82;102635.03;4769900;30;20034;-79
2022/01/30 17:36:04;;;;;;;44.97;14.70;;;;;;;2.39;77.90;102656.28;4770120;30;20036;-79
2022/01/30 17:38:32;;;;;;;31.70;11.95;;;;;;;2.48;78.45;102669.03;4770005;30;20024;-78
2022/01/30 17:40:58;;;;;;;28.00;12.05;;;;;;;2.44;78.74;102664.78;4769865;30;20032;-78
2022/01/30 17:43:23;;;;;;;35.50;10.65;;;;;;;2.38;79.14;102654.59;4769796;30;20113;-79
2022/01/30 17:45:49;;;;;;;34.60;10.98;;;;;;;1.98;78.83;102590.84;4767554;30;20032;-78
2022/01/30 17:48:14;;;;;;;36.90;10.60;;;;;;;2.41;78.55;102652.03;4769675;30;20055;-79
2022/01/30 17:53:23;;;;;;;32.72;12.68;;;;;;;2.42;78.04;102628.22;4768360;30;20056;-78
2022/01/30 17:55:49;;;;;;;40.50;13.52;;;;;;;2.47;78.33;102632.50;4769838;30;20040;-80
2022/01/30 17:58:14;;;;;;;36.35;12.60;;;;;;;2.27;78.32;102594.25;4769922;30;20035;-79
2022/01/30 18:08:25;;;;;;;39.92;14.95;;;;;;;1.38;78.45;102434.63;4900605;24;20585;-79
2022/01/30 18:14:24;;;;;;;52.67;19.98;;;;;;;1.68;78.26;102477.06;4767330;30;20520;-78
2022/01/30 18:20:54;;;;;;;50.33;24.58;;;;;;;2.58;78.31;102615.47;4785900;29;20083;-77
2022/01/30 18:23:20;;;;;;;48.38;17.70;;;;;;;2.59;78.25;102604.44;4789223;30;20586;-77
2022/01/30 18:25:46;;;;;;;39.35;16.05;;;;;;;2.55;78.54;102599.31;4994652;24;20079;-79
2022/01/30 18:28:12;;;;;;;35.70;14.52;;;;;;;2.56;78.72;102614.63;4790785;29;20484;-79
2022/01/30 18:30:38;;;;;;;39.60;14.48;;;;;;;2.49;79.24;102614.63;4791018;30;20035;-82
2022/01/30 18:33:04;;;;;;;33.53;13.27;;;;;;;2.47;79.33;102618.91;4791300;30;20036;-83
2022/01/30 18:35:35;;;;;;;35.30;13.82;;;;;;;2.16;79.61;102565.34;4791355;30;20430;-84
2022/01/30 18:54:54;;;;;;;37.97;11.15;;;;;;;2.70;80.55;102575.50;5453728;24;20089;-79
2022/01/30 18:57:24;;;;;;;39.80;10.88;;;;;;;2.51;80.25;102518.59;4753548;30;20055;-81
2022/01/30 18:59:50;;;;;;;42.28;11.27;;;;;;;2.72;80.33;102545.72;4754035;30;20189;-80
2022/01/30 19:02:16;;;;;;;38.20;10.93;;;;;;;2.87;80.69;102564.41;4754998;30;20440;-80
2022/01/30 19:04:42;;;;;;;33.70;10.50;;;;;;;2.67;80.57;102515.16;4754263;30;20036;-80
2022/01/30 19:07:08;;;;;;;35.20;12.07;;;;;;;2.90;81.37;102550.78;4753933;30;20109;-80
2022/01/30 19:09:34;;;;;;;36.20;9.20;;;;;;;2.93;81.08;102532.91;4754464;30;20040;-82
2022/01/30 19:12:02;;;;;;;33.83;10.93;;;;;;;3.08;81.40;102529.44;4754546;30;20046;-80
2022/01/30 19:20:13;;;;;;;44.70;10.75;;;;;;;3.12;81.41;102526.00;5067331;24;20059;-85
2022/01/30 19:22:57;;;;;;;30.63;9.48;;;;;;;2.74;81.50;102452.19;4928043;24;20059;-80
2022/01/30 19:25:22;;;;;;;35.65;8.48;;;;;;;2.54;81.84;102416.56;4790097;30;20031;-79
2022/01/30 19:34:24;;;;;;;38.95;10.27;;;;;;;3.37;81.61;102522.47;4823376;24;20051;-88
2022/01/30 19:58:32;;;;;;;42.72;11.40;;;;;;;2.19;81.53;102221.31;5316100;24;20030;-82
2022/01/30 20:01:20;;;;;;;41.53;11.38;;;;;;;3.50;81.17;102422.78;4771727;30;20035;-82
2022/01/30 20:06:33;;;;;;;41.72;11.25;;;;;;;2.37;81.17;102201.66;4847631;24;20047;-87
2022/01/30 20:09:07;;;;;;;43.42;9.77;;;;;;;3.45;81.04;102377.72;4789706;30;20043;-80
2022/01/30 20:11:33;;;;;;;32.95;10.07;;;;;;;2.96;81.07;102300.69;4787874;30;20479;-80
2022/01/30 20:14:43;;;;;;;29.35;9.50;;;;;;;2.36;80.70;102172.78;4794978;24;20075;-80
2022/01/30 20:17:30;;;;;;;33.92;9.55;;;;;;;3.32;80.92;102334.41;4768658;30;20081;-81